Sunday, December 17, 2017, 10:01 PM EST
Back to Local

KCLE, Cleveland-hopkins International

Location: Cleveland, OH, United States Lat: 41.4
Local Time: 10:01 PM EST ( 3:01 GMT) Lon: -81.85
Time Zone: US/Eastern Elev: 790 ft

Show me the last for .
Show Coded

Time T Td Feel RH Dir Speed Gust Alt SLP Vis Weather Sky Remarks
2017-12-17 21:19 38 33 31 82 190° 9 - 30.10 - 10 BKN025 OVC050 None
2017-12-17 21:08 38 33 31 82 200° 9 - 30.10 - 10 SCT023 OVC055 None
2017-12-17 20:51 38 33 31 82 190° 10 - 30.10 30.12 10 BKN023 OVC060 None
2017-12-17 20:38 38 33 30 82 180° 12 - 30.10 - 10 BKN023 OVC055 None
2017-12-17 20:21 38 33 30 82 190° 12 - 30.10 - 10 SCT027 OVC060 None
2017-12-17 20:00 37 33 32 85 180° 6 - 30.10 - 10 BKN026 OVC090 None
2017-12-17 19:51 37 33 33 85 190° 5 - 30.11 30.13 10 BKN085 OVC120 None
2017-12-17 18:51 37 33 32 85 200° 6 - 30.09 30.12 10 OVC090 Snow depth: 1"
6-hr Min Temp (7pm): 37.0°F
6-hr Max Temp (7pm): 39.0°F
2017-12-17 17:51 38 32 32 78 190° 8 - 30.09 30.12 10 OVC120 None
2017-12-17 16:51 38 31 32 75 180° 8 - 30.11 30.13 10 OVC110 None
2017-12-17 15:51 39 30 35 69 190° 6 - 30.11 30.13 10 OVC100 None
2017-12-17 14:51 37 31 - 78 - Calm - 30.11 30.13 7 OVC110 None
2017-12-17 13:51 37 31 - 78 - Calm - 30.11 30.14 7 FEW120 OVC140 None
2017-12-17 12:51 38 31 - 75 - Calm - 30.15 30.17 10 OVC140 Snow depth: 2"
Water equiv. of snow on ground: 0.2"
6-hr Min Temp (1pm): 26.1°F
6-hr Max Temp (1pm): 37.9°F
2017-12-17 11:51 36 31 - 81 - Calm - 30.17 30.19 10 OVC140 None
2017-12-17 10:51 33 30 - 88 - Calm - 30.21 30.23 7 OVC170 None
2017-12-17 09:51 31 28 - 88 - Calm - 30.22 30.24 7 OVC250 None
2017-12-17 08:51 27 25 22 92 170° 5 - 30.20 30.23 4 BR OVC250 None
2017-12-17 07:51 27 24 23 88 100° 3 - 30.19 30.21 5 BR BKN250 None
2017-12-17 06:51 26 23 - 87 - Calm - 30.20 30.22 5 BR BKN250 Snow depth: 2"
6-hr Min Temp (7am): 23.0°F
6-hr Max Temp (7am): 28.9°F
2017-12-17 06:21 24 22 - 91 - Calm - 30.20 - 4 BR BKN250 None
2017-12-17 06:14 24 22 - 91 - Calm - 30.20 - 2 BR BKN250 None
2017-12-17 05:51 24 21 - 87 - Calm - 30.19 30.22 3 BR BKN250 None
2017-12-17 04:51 26 24 - 92 - Calm - 30.19 30.21 5 BR BKN250 None
2017-12-17 03:51 26 24 22 92 80° 3 - 30.18 30.20 6 BR FEW250 None
2017-12-17 02:51 28 25 23 88 70° 5 - 30.17 30.19 6 BR FEW250 None
2017-12-17 01:51 26 24 - 92 - Calm - 30.17 30.19 5 BR SCT250 None
2017-12-17 00:51 29 26 23 88 130° 6 - 30.17 30.19 7 CLR Snow depth: 2"
6-hr Min Temp (1am): 27.0°F
6-hr Max Temp (1am): 35.1°F
2017-12-16 23:51 32 28 26 85 80° 7 - 30.16 30.19 7 CLR 24-hr Min Temp (12am): 27.0°F
24-hr Max Temp (12am): 41.0°F
2017-12-16 22:51 27 27 23 100 40° 3 - 30.16 30.18 3 BR CLR None

Support USWX by starting your Amazon purchase here.